Time;durP1;ratioP1;P1;durP2;ratioP2;P2;SDS_P1;SDS_P2;PMS_P1;PMS_P2;Temp;Humidity;BMP_temperature;BMP_pressure;BME280_temperature;BME280_humidity;BME280_pressure;Samples;Min_cycle;Max_cycle;Signal;HPM_P1;HPM_P2
2022/03/15 00:02:01;;;;;;;31.35;14.82;;;;;;;5.62;83.33;102615.69;5069973;28;20020;-76
2022/03/15 00:04:26;;;;;;;27.45;14.52;;;;;;;5.60;83.30;102617.53;5071690;28;20051;-76
2022/03/15 00:06:51;;;;;;;29.33;14.52;;;;;;;5.57;83.58;102618.47;5071583;28;20081;-76
2022/03/15 00:09:16;;;;;;;30.67;14.82;;;;;;;5.54;83.16;102613.22;5069139;28;20037;-76
2022/03/15 00:11:42;;;;;;;28.95;13.70;;;;;;;5.51;83.17;102615.09;5070828;28;20082;-76
2022/03/15 00:14:09;;;;;;;34.45;15.15;;;;;;;5.47;83.58;102608.94;5070729;28;20036;-76
2022/03/15 00:16:34;;;;;;;30.40;14.32;;;;;;;5.47;83.77;102608.09;5070724;28;20107;-76
2022/03/15 00:19:00;;;;;;;31.00;14.65;;;;;;;5.45;83.54;102604.56;5070190;28;20108;-76
2022/03/15 00:21:25;;;;;;;31.83;13.88;;;;;;;5.41;84.18;102601.09;5070614;28;20032;-76
2022/03/15 00:23:50;;;;;;;31.33;16.05;;;;;;;5.40;84.23;102591.34;5068406;28;20032;-76
2022/03/15 00:26:16;;;;;;;27.65;14.65;;;;;;;5.42;84.30;102594.88;5054596;28;20044;-76
2022/03/15 00:28:42;;;;;;;30.50;16.73;;;;;;;5.44;84.65;102598.34;5067913;28;20033;-76
2022/03/15 00:31:07;;;;;;;30.38;15.15;;;;;;;5.46;84.32;102591.22;5070786;28;20038;-76
2022/03/15 00:33:32;;;;;;;33.33;16.20;;;;;;;5.45;84.49;102597.44;5065491;28;20025;-76
2022/03/15 00:35:59;;;;;;;26.33;14.48;;;;;;;5.43;84.63;102604.59;5065405;28;20645;-76
2022/03/15 00:38:25;;;;;;;31.33;14.35;;;;;;;5.43;84.90;102602.81;5068790;28;20119;-76
2022/03/15 00:40:51;;;;;;;31.50;14.88;;;;;;;5.43;84.53;102601.94;5067040;28;20108;-76
2022/03/15 00:43:16;;;;;;;30.55;14.15;;;;;;;5.42;85.08;102603.72;5069266;28;20434;-76
2022/03/15 00:45:41;;;;;;;30.55;13.82;;;;;;;5.43;85.09;102601.94;5070537;28;20151;-76
2022/03/15 00:48:07;;;;;;;29.00;14.25;;;;;;;5.42;85.78;102598.41;5069538;28;20119;-76
2022/03/15 00:50:36;;;;;;;27.45;13.65;;;;;;;5.41;85.33;102596.63;5069203;28;20028;-76
2022/03/15 00:53:03;;;;;;;28.80;14.60;;;;;;;5.42;85.55;102593.06;5070370;28;20077;-76
2022/03/15 00:55:28;;;;;;;26.75;14.02;;;;;;;5.44;84.43;102590.34;5068415;28;20028;-76
2022/03/15 00:57:53;;;;;;;35.80;14.45;;;;;;;5.46;84.67;102585.88;5067275;28;20036;-76
2022/03/15 01:00:20;;;;;;;30.00;15.02;;;;;;;5.48;85.09;102581.38;5067200;28;20037;-76
2022/03/15 01:02:46;;;;;;;31.02;14.45;;;;;;;5.50;85.10;102584.88;5066829;28;20233;-76
2022/03/15 01:05:11;;;;;;;30.73;14.77;;;;;;;5.50;85.08;102582.19;5068548;28;20574;-76
2022/03/15 01:07:37;;;;;;;29.35;13.65;;;;;;;5.51;85.02;102577.78;5068494;28;20477;-76
2022/03/15 01:10:02;;;;;;;25.52;13.93;;;;;;;5.48;85.26;102583.19;5067631;28;20059;-76
2022/03/15 01:12:28;;;;;;;27.42;15.00;;;;;;;5.45;84.54;102584.13;5068839;28;20078;-76
2022/03/15 01:14:53;;;;;;;27.73;14.23;;;;;;;5.45;85.21;102580.56;5063389;28;20949;-76
2022/03/15 01:17:19;;;;;;;31.90;15.63;;;;;;;5.47;85.09;102587.63;5069116;28;20035;-76
2022/03/15 01:19:44;;;;;;;28.58;14.70;;;;;;;5.50;85.17;102592.00;5068680;28;20109;-76
2022/03/15 01:22:10;;;;;;;29.70;15.95;;;;;;;5.50;84.83;102594.66;5068053;28;20028;-76
2022/03/15 01:24:35;;;;;;;34.33;15.98;;;;;;;5.54;84.28;102585.69;5068833;28;20230;-76
2022/03/15 01:27:01;;;;;;;31.15;16.42;;;;;;;5.58;84.74;102582.91;5067640;28;20035;-76
2022/03/15 01:29:26;;;;;;;32.33;15.35;;;;;;;5.63;84.76;102568.59;5067898;28;20032;-76
2022/03/15 01:31:52;;;;;;;31.00;14.93;;;;;;;5.67;84.50;102573.81;5070321;28;20041;-76
2022/03/15 01:34:18;;;;;;;34.55;15.98;;;;;;;5.68;83.81;102570.22;5062331;28;20051;-76
2022/03/15 01:36:43;;;;;;;31.30;16.67;;;;;;;5.71;84.40;102566.59;5068897;28;20028;-76
2022/03/15 01:39:09;;;;;;;36.10;16.05;;;;;;;5.69;83.84;102558.63;5068783;28;20119;-76
2022/03/15 01:41:38;;;;;;;28.05;15.35;;;;;;;5.71;84.25;102558.56;5068723;28;20365;-76
2022/03/15 01:44:04;;;;;;;30.95;15.43;;;;;;;5.72;84.18;102558.53;5068328;28;20106;-76
2022/03/15 01:46:30;;;;;;;34.75;15.07;;;;;;;5.72;83.64;102553.19;5070142;28;20086;-76
2022/03/15 01:48:55;;;;;;;27.02;13.05;;;;;;;5.73;83.77;102554.09;5070213;28;20727;-76
2022/03/15 01:51:21;;;;;;;32.50;14.60;;;;;;;5.72;84.06;102555.88;5067198;28;20110;-77
2022/03/15 01:53:47;;;;;;;31.02;16.35;;;;;;;5.71;83.36;102553.25;5067344;28;20361;-77
2022/03/15 01:56:12;;;;;;;30.00;14.18;;;;;;;5.70;83.54;102548.84;5066580;28;20028;-77
2022/03/15 01:58:37;;;;;;;32.03;13.85;;;;;;;5.70;83.29;102554.19;5069428;28;20099;-77
2022/03/15 02:01:03;;;;;;;26.33;14.45;;;;;;;5.69;83.10;102544.41;5067568;28;21881;-77
2022/03/15 02:03:30;;;;;;;29.13;13.82;;;;;;;5.66;83.07;102550.69;5068460;28;20022;-77
2022/03/15 02:05:55;;;;;;;24.85;13.43;;;;;;;5.63;83.88;102552.56;5066737;28;20032;-77
2022/03/15 02:08:20;;;;;;;26.42;14.48;;;;;;;5.63;84.05;102548.09;5068677;28;20028;-76
2022/03/15 02:10:46;;;;;;;28.15;14.25;;;;;;;5.60;83.01;102551.72;5068905;28;20361;-76
2022/03/15 02:13:11;;;;;;;30.98;15.35;;;;;;;5.56;83.62;102543.84;5066265;28;20017;-76
2022/03/15 02:15:37;;;;;;;28.73;13.75;;;;;;;5.54;83.71;102543.88;5069249;28;20058;-76
2022/03/15 02:18:04;;;;;;;30.17;13.07;;;;;;;5.55;83.76;102537.66;5069976;28;20028;-76
2022/03/15 02:20:30;;;;;;;27.15;12.90;;;;;;;5.55;83.94;102537.66;5068666;28;20024;-76
2022/03/15 02:22:55;;;;;;;28.20;13.20;;;;;;;5.55;83.82;102526.06;5068825;28;20021;-76
2022/03/15 02:25:21;;;;;;;25.90;13.55;;;;;;;5.55;83.91;102526.06;5069244;28;20032;-76
2022/03/15 02:27:46;;;;;;;30.33;14.13;;;;;;;5.55;83.85;102526.97;5068292;28;20139;-76
2022/03/15 02:30:12;;;;;;;25.15;12.77;;;;;;;5.53;84.12;102519.91;5067171;28;20027;-76
2022/03/15 02:32:42;;;;;;;29.92;13.95;;;;;;;5.56;84.14;102511.84;5067193;28;20075;-76
2022/03/15 02:35:08;;;;;;;31.15;13.88;;;;;;;5.59;83.54;102514.41;5066900;28;20025;-76
2022/03/15 02:37:34;;;;;;;29.75;14.43;;;;;;;5.65;83.47;102521.41;5068655;28;20031;-76
2022/03/15 02:39:59;;;;;;;25.58;13.32;;;;;;;5.68;83.45;102513.31;5068403;28;20024;-76
2022/03/15 02:42:25;;;;;;;30.25;13.90;;;;;;;5.70;83.37;102524.84;5065219;28;20111;-76
2022/03/15 02:44:50;;;;;;;27.45;13.68;;;;;;;5.71;83.06;102515.91;5067385;28;20060;-76
2022/03/15 02:47:15;;;;;;;26.35;13.95;;;;;;;5.71;83.12;102513.22;5066657;28;20039;-76
2022/03/15 02:49:41;;;;;;;28.98;14.43;;;;;;;5.73;83.22;102514.09;5068389;28;20136;-76
2022/03/15 02:52:06;;;;;;;28.65;12.80;;;;;;;5.75;82.98;102504.22;5068341;28;20031;-76
2022/03/15 02:54:32;;;;;;;27.75;13.98;;;;;;;5.78;82.57;102497.03;5066920;28;20066;-76
2022/03/15 02:56:57;;;;;;;24.25;12.55;;;;;;;5.82;82.03;102495.16;5065968;28;20056;-76
2022/03/15 02:59:22;;;;;;;27.02;13.75;;;;;;;5.84;82.54;102496.00;5066282;28;20392;-76
2022/03/15 03:01:48;;;;;;;25.05;12.75;;;;;;;5.83;82.49;102494.25;5067748;28;20059;-76
2022/03/15 03:04:15;;;;;;;24.38;13.02;;;;;;;5.81;81.86;102488.06;5066720;28;20017;-76
2022/03/15 03:06:41;;;;;;;23.40;12.13;;;;;;;5.81;82.25;102482.72;5063451;28;20024;-77
2022/03/15 03:09:08;;;;;;;25.48;13.15;;;;;;;5.78;82.32;102467.69;5068419;28;20033;-76
2022/03/15 03:11:33;;;;;;;26.42;12.30;;;;;;;5.77;82.28;102467.75;5061773;28;20024;-76
2022/03/15 03:13:59;;;;;;;26.02;13.30;;;;;;;5.77;82.23;102471.28;5066813;28;20113;-76
2022/03/15 03:16:26;;;;;;;25.63;11.60;;;;;;;5.75;82.82;102464.22;5067970;28;20406;-76
2022/03/15 03:18:54;;;;;;;29.50;13.52;;;;;;;5.73;82.18;102463.41;5068698;28;20054;-76
2022/03/15 03:21:20;;;;;;;28.70;13.85;;;;;;;5.73;82.64;102466.06;5065713;28;20032;-76
2022/03/15 03:23:46;;;;;;;31.83;14.75;;;;;;;5.75;82.15;102464.22;5068395;28;20451;-76
2022/03/15 03:26:11;;;;;;;30.38;12.63;;;;;;;5.75;82.83;102459.78;5065517;28;20028;-76
2022/03/15 03:28:36;;;;;;;29.00;13.73;;;;;;;5.71;82.37;102466.09;5067962;28;20107;-76
2022/03/15 03:31:07;;;;;;;27.48;13.10;;;;;;;5.71;81.74;102462.53;5067650;28;20028;-76
2022/03/15 03:33:33;;;;;;;27.08;13.52;;;;;;;5.72;81.83;102449.16;5066193;28;20028;-76
2022/03/15 03:35:59;;;;;;;24.27;11.63;;;;;;;5.72;82.39;102448.28;5067191;28;20109;-76
2022/03/15 03:38:24;;;;;;;29.27;12.50;;;;;;;5.69;82.38;102457.25;5067113;28;20036;-76
2022/03/15 03:40:50;;;;;;;26.55;12.90;;;;;;;5.70;82.25;102456.34;5065769;28;20095;-76
2022/03/15 03:43:16;;;;;;;26.77;12.80;;;;;;;5.71;82.51;102450.09;5067095;28;20028;-76
2022/03/15 03:45:41;;;;;;;26.27;13.40;;;;;;;5.72;81.88;102456.31;5066870;28;20033;-76
2022/03/15 03:48:07;;;;;;;24.50;11.60;;;;;;;5.71;82.75;102455.44;5067793;28;20046;-76
2022/03/15 03:50:34;;;;;;;29.48;11.23;;;;;;;5.72;82.20;102453.63;5068434;28;20059;-76
2022/03/15 03:52:59;;;;;;;27.30;12.35;;;;;;;5.78;81.12;102453.47;5068071;28;20034;-76
2022/03/15 03:55:24;;;;;;;26.65;12.25;;;;;;;5.81;81.68;102453.38;5067192;28;20099;-76
2022/03/15 03:57:50;;;;;;;26.33;11.23;;;;;;;5.83;81.00;102438.22;5067529;28;20116;-76
2022/03/15 04:00:16;;;;;;;25.40;12.93;;;;;;;5.85;81.09;102439.03;5069891;28;20100;-76
2022/03/15 04:02:42;;;;;;;27.30;12.50;;;;;;;5.88;80.49;102443.41;5068501;28;20028;-76
2022/03/15 04:05:08;;;;;;;26.40;11.90;;;;;;;5.88;81.05;102446.94;5066384;28;20032;-76
2022/03/15 04:07:34;;;;;;;27.75;13.00;;;;;;;5.88;81.00;102446.94;5065956;28;20735;-77
2022/03/15 04:10:00;;;;;;;25.35;11.93;;;;;;;5.86;81.16;102445.25;5066556;28;20103;-77
2022/03/15 04:12:25;;;;;;;22.73;11.25;;;;;;;5.85;80.81;102451.50;5067055;28;20483;-77
2022/03/15 04:14:51;;;;;;;27.95;11.98;;;;;;;5.82;81.12;102452.47;5066822;28;20179;-77
2022/03/15 04:17:16;;;;;;;23.50;11.18;;;;;;;5.81;81.04;102453.38;5066630;28;20152;-76
2022/03/15 04:19:41;;;;;;;27.02;11.75;;;;;;;5.81;81.28;102456.03;5065812;28;20066;-76
2022/03/15 04:22:07;;;;;;;23.73;11.60;;;;;;;5.79;81.32;102457.88;5066602;28;20032;-76
2022/03/15 04:24:32;;;;;;;25.55;11.93;;;;;;;5.77;81.21;102455.25;5065696;28;20036;-76
2022/03/15 04:26:59;;;;;;;25.73;10.90;;;;;;;5.79;81.04;102463.22;5067122;28;20024;-76
2022/03/15 04:29:26;;;;;;;30.85;12.93;;;;;;;5.79;81.56;102455.22;5065659;28;20085;-76
2022/03/15 04:31:51;;;;;;;25.27;12.10;;;;;;;5.78;81.50;102457.03;5068171;28;20029;-76
2022/03/15 04:34:17;;;;;;;22.50;11.40;;;;;;;5.79;81.43;102449.88;5065373;28;20494;-76
2022/03/15 04:36:43;;;;;;;23.45;11.73;;;;;;;5.80;80.79;102459.66;5065913;28;20040;-76
2022/03/15 04:39:08;;;;;;;29.40;13.20;;;;;;;5.79;81.30;102468.56;5066344;28;20054;-76
2022/03/15 04:41:34;;;;;;;23.25;10.55;;;;;;;5.78;80.76;102449.03;5066900;28;20028;-76
2022/03/15 04:43:59;;;;;;;22.85;11.23;;;;;;;5.78;80.89;102448.13;5070547;28;20406;-76
2022/03/15 04:46:24;;;;;;;24.55;12.13;;;;;;;5.81;80.53;102448.03;5069508;28;20039;-76
2022/03/15 04:48:50;;;;;;;23.73;11.77;;;;;;;5.85;80.20;102438.16;5070604;28;20032;-76
2022/03/15 04:51:15;;;;;;;26.80;12.45;;;;;;;5.89;80.70;102445.19;5065100;28;20036;-76
2022/03/15 04:53:40;;;;;;;30.02;12.25;;;;;;;5.92;79.85;102447.75;5070179;28;20039;-76
2022/03/15 04:56:06;;;;;;;27.40;12.95;;;;;;;5.95;79.73;102445.00;5067148;28;20362;-76
2022/03/15 04:58:32;;;;;;;24.30;10.80;;;;;;;5.97;79.30;102436.94;5070787;28;20036;-76
2022/03/15 05:00:58;;;;;;;25.92;11.18;;;;;;;5.98;79.51;102436.94;5068900;28;20119;-76
2022/03/15 05:03:24;;;;;;;23.60;11.75;;;;;;;5.98;79.36;102433.41;5069180;28;20036;-76
2022/03/15 05:05:49;;;;;;;23.95;11.82;;;;;;;5.98;79.37;102430.72;5071286;28;20032;-76
2022/03/15 05:08:14;;;;;;;24.77;11.77;;;;;;;5.99;79.07;102435.13;5068398;28;20190;-77
2022/03/15 05:13:26;;;;;;;25.20;11.38;;;;;;;6.01;79.38;102427.97;5069137;28;20047;-76
2022/03/15 05:15:52;;;;;;;26.45;12.05;;;;;;;6.00;79.23;102428.88;5068382;28;20043;-76
2022/03/15 05:18:18;;;;;;;25.05;11.02;;;;;;;5.97;79.52;102423.59;5069630;28;20141;-76
2022/03/15 05:20:43;;;;;;;24.00;11.48;;;;;;;5.91;79.73;102425.50;5069327;28;20067;-76
2022/03/15 05:23:08;;;;;;;21.60;10.90;;;;;;;5.84;80.32;102418.63;5070040;28;20025;-76
2022/03/15 05:25:34;;;;;;;23.27;11.05;;;;;;;5.78;80.01;102422.34;5067157;28;20667;-76
2022/03/15 05:27:59;;;;;;;25.05;11.52;;;;;;;5.75;80.00;102414.44;5069880;28;20050;-77
2022/03/15 05:30:24;;;;;;;28.73;11.77;;;;;;;5.75;80.35;102418.88;5068747;28;20021;-77
2022/03/15 05:32:50;;;;;;;23.00;10.95;;;;;;;5.76;80.33;102412.63;5070485;28;20112;-77
2022/03/15 05:35:16;;;;;;;22.85;10.57;;;;;;;5.75;80.47;102419.75;5067582;28;20033;-77
2022/03/15 05:37:41;;;;;;;23.25;11.57;;;;;;;5.74;80.42;102411.78;5068504;28;20070;-77
2022/03/15 05:40:07;;;;;;;27.42;10.40;;;;;;;5.75;80.35;102410.84;5067716;28;20059;-76
2022/03/15 05:42:33;;;;;;;23.67;11.13;;;;;;;5.76;80.27;102399.28;5062893;28;20055;-76
2022/03/15 05:44:58;;;;;;;26.27;11.27;;;;;;;5.78;80.38;102406.31;5068712;28;20512;-76
2022/03/15 05:47:23;;;;;;;26.15;11.82;;;;;;;5.79;80.04;102399.19;5069458;28;20078;-76
2022/03/15 05:49:49;;;;;;;23.40;10.73;;;;;;;5.77;79.82;102396.56;5069337;28;20032;-76
2022/03/15 05:52:14;;;;;;;26.63;11.90;;;;;;;5.76;79.94;102396.63;5067873;28;20047;-76
2022/03/15 05:54:40;;;;;;;23.38;11.27;;;;;;;5.73;79.98;102399.38;5068386;28;20076;-76
2022/03/15 05:57:05;;;;;;;27.05;12.80;;;;;;;5.68;80.12;102390.59;5069283;28;20044;-76
2022/03/15 05:59:30;;;;;;;27.58;11.38;;;;;;;5.65;80.28;102398.69;5059993;28;20147;-76
2022/03/15 06:01:56;;;;;;;26.02;11.60;;;;;;;5.58;80.88;102390.88;5069700;28;20364;-76
2022/03/15 06:04:24;;;;;;;24.88;11.20;;;;;;;5.52;80.94;102396.38;5066532;28;20040;-76
2022/03/15 06:06:50;;;;;;;25.20;12.23;;;;;;;5.48;81.35;102400.03;5068732;28;20510;-76
2022/03/15 06:09:15;;;;;;;26.77;10.75;;;;;;;5.45;81.67;102389.47;5067168;28;20056;-76
2022/03/15 06:11:41;;;;;;;25.58;10.38;;;;;;;5.47;81.50;102392.09;5068589;28;20073;-76
2022/03/15 06:14:07;;;;;;;29.38;11.73;;;;;;;5.47;81.97;102398.28;5067300;28;20040;-76
2022/03/15 06:16:33;;;;;;;25.83;11.32;;;;;;;5.48;82.33;102397.38;5062089;28;20387;-76
2022/03/15 06:18:58;;;;;;;24.02;11.15;;;;;;;5.49;82.50;102399.13;5066374;28;20035;-76
2022/03/15 06:21:24;;;;;;;27.42;12.60;;;;;;;5.48;82.19;102397.38;5066993;28;20067;-76
2022/03/15 06:23:49;;;;;;;23.33;10.52;;;;;;;5.48;82.10;102394.72;5067438;28;20101;-76
2022/03/15 06:26:15;;;;;;;25.15;11.50;;;;;;;5.49;82.89;102393.81;5068107;28;20480;-76
2022/03/15 06:28:41;;;;;;;23.50;10.98;;;;;;;5.50;82.48;102387.53;5066104;28;20447;-76
2022/03/15 06:31:09;;;;;;;26.15;11.70;;;;;;;5.53;82.83;102394.56;5066593;28;20032;-76
2022/03/15 06:33:34;;;;;;;24.67;11.00;;;;;;;5.60;82.95;102393.50;5058083;28;20033;-76
2022/03/15 06:36:00;;;;;;;23.73;12.43;;;;;;;5.66;82.36;102392.44;5065765;28;20028;-76
2022/03/15 06:38:26;;;;;;;26.23;12.45;;;;;;;5.72;81.90;102385.13;5068547;28;20028;-76
2022/03/15 06:40:52;;;;;;;25.30;11.73;;;;;;;5.78;81.58;102389.44;5067678;28;20378;-76
2022/03/15 06:43:18;;;;;;;23.80;12.15;;;;;;;5.82;81.35;102380.41;5078306;28;20548;-76
2022/03/15 06:45:43;;;;;;;23.92;11.18;;;;;;;5.86;80.88;102379.41;5074791;28;20033;-76
2022/03/15 06:48:09;;;;;;;25.58;11.32;;;;;;;5.91;80.61;102387.28;5068726;28;20029;-76
2022/03/15 06:50:35;;;;;;;22.58;10.90;;;;;;;5.95;80.63;102380.94;5067384;28;20035;-76
2022/03/15 06:53:01;;;;;;;23.52;12.00;;;;;;;5.99;80.49;102373.75;5069287;28;20380;-76
2022/03/15 06:55:27;;;;;;;26.63;11.50;;;;;;;6.02;79.53;102373.66;5067691;28;20024;-76
2022/03/15 06:57:52;;;;;;;24.63;12.55;;;;;;;6.03;79.71;102370.06;5068149;28;20028;-76
2022/03/15 07:00:18;;;;;;;26.30;12.38;;;;;;;6.06;79.56;102364.63;5065689;28;20112;-76
2022/03/15 07:02:43;;;;;;;25.63;12.90;;;;;;;6.08;79.55;102373.50;5064901;28;20427;-76
2022/03/15 07:05:09;;;;;;;27.33;11.98;;;;;;;6.11;79.33;102376.06;5062210;28;20154;-77
2022/03/15 07:07:35;;;;;;;23.88;11.32;;;;;;;6.13;79.31;102376.88;5066382;28;20494;-77
2022/03/15 07:10:05;;;;;;;26.02;10.98;;;;;;;6.17;78.73;102373.22;5068185;28;20044;-77
2022/03/15 07:12:31;;;;;;;;;;;;;;;6.25;79.06;102373.84;5068789;28;20032;-77
2022/03/15 07:14:56;;;;;;;22.83;10.82;;;;;;;6.28;78.13;102375.53;5067468;28;19912;-77
2022/03/15 07:17:22;;;;;;;24.58;11.27;;;;;;;6.30;77.71;102374.56;5068104;28;20021;-77
2022/03/15 07:19:47;;;;;;;23.83;10.68;;;;;;;6.34;77.28;102366.47;5054169;28;20021;-77
2022/03/15 07:22:12;;;;;;;24.73;10.65;;;;;;;6.36;77.43;102367.31;5048117;28;20025;-77
2022/03/15 07:24:38;;;;;;;22.33;9.50;;;;;;;6.39;77.47;102361.88;5062412;28;20029;-77
2022/03/15 07:27:03;;;;;;;21.95;10.45;;;;;;;6.43;77.64;102363.53;5068311;28;20035;-77
2022/03/15 07:29:29;;;;;;;24.15;11.13;;;;;;;6.45;77.57;102364.34;5065752;28;20031;-77
2022/03/15 07:31:54;;;;;;;25.90;11.40;;;;;;;6.47;76.94;102358.03;5066933;28;20112;-77
2022/03/15 07:34:20;;;;;;;23.50;9.95;;;;;;;6.51;76.71;102349.91;5066161;28;20585;-76
2022/03/15 07:36:45;;;;;;;23.65;10.95;;;;;;;6.52;77.13;102352.53;5066259;28;20032;-76
2022/03/15 07:39:11;;;;;;;24.83;11.07;;;;;;;6.55;76.67;102357.78;5067230;28;20035;-76
2022/03/15 07:41:40;;;;;;;21.17;9.80;;;;;;;6.59;76.14;102354.09;5066648;28;20028;-76
2022/03/15 07:44:09;;;;;;;24.83;9.88;;;;;;;6.62;76.42;102359.34;5065983;28;20032;-76
2022/03/15 07:46:36;;;;;;;28.52;10.05;;;;;;;6.65;76.44;102361.91;5064297;28;20085;-76
2022/03/15 07:49:02;;;;;;;22.75;9.68;;;;;;;6.68;75.81;102360.94;5064379;28;20059;-76
2022/03/15 07:51:27;;;;;;;22.75;8.85;;;;;;;6.73;75.92;102352.75;5065689;28;20043;-77
2022/03/15 07:53:53;;;;;;;22.45;10.63;;;;;;;6.74;75.88;102350.03;5061729;28;20025;-77
2022/03/15 07:56:18;;;;;;;25.35;10.13;;;;;;;6.77;75.28;102349.06;5060159;28;20943;-77
2022/03/15 07:58:43;;;;;;;24.88;9.25;;;;;;;6.80;75.97;102347.16;5068798;28;20050;-77
2022/03/15 08:01:09;;;;;;;24.08;9.55;;;;;;;6.83;75.61;102354.22;5061234;28;20510;-77
2022/03/15 08:03:34;;;;;;;24.63;9.40;;;;;;;6.86;75.40;102346.09;5059777;28;20035;-77
2022/03/15 08:06:00;;;;;;;24.67;10.63;;;;;;;6.88;75.10;102338.91;5056511;28;20033;-77
2022/03/15 08:08:25;;;;;;;21.25;8.90;;;;;;;6.92;74.92;102337.84;5056199;28;20031;-77
2022/03/15 08:10:50;;;;;;;22.85;9.32;;;;;;;6.94;74.51;102337.78;5045344;28;20052;-77
2022/03/15 08:13:16;;;;;;;21.25;8.45;;;;;;;6.97;74.66;102332.38;5057658;28;20111;-76
2022/03/15 08:15:41;;;;;;;24.42;9.07;;;;;;;7.00;74.27;102327.78;5062200;28;20028;-76
2022/03/15 08:18:06;;;;;;;21.15;8.82;;;;;;;7.00;74.27;102325.09;5064078;28;20025;-76
2022/03/15 08:20:33;;;;;;;24.23;9.48;;;;;;;7.05;73.64;102321.41;5065974;28;20067;-76
2022/03/15 08:22:59;;;;;;;22.38;8.45;;;;;;;7.08;73.91;102323.97;5063657;28;20557;-77
2022/03/15 08:25:25;;;;;;;21.48;8.55;;;;;;;7.13;73.38;102327.34;5067655;28;20468;-76
2022/03/15 08:27:50;;;;;;;22.67;8.57;;;;;;;7.14;74.73;102308.56;5064159;28;20055;-77
2022/03/15 08:30:15;;;;;;;22.88;7.53;;;;;;;7.18;74.21;102318.22;5061288;28;20438;-77
2022/03/15 08:32:41;;;;;;;19.85;7.40;;;;;;;7.23;73.08;102314.53;5068340;28;20034;-77
2022/03/15 08:35:07;;;;;;;23.10;7.55;;;;;;;7.25;72.78;102310.88;5045847;28;20038;-77
2022/03/15 08:37:32;;;;;;;18.92;7.18;;;;;;;7.29;73.79;102312.53;5068614;28;20469;-76
2022/03/15 08:39:58;;;;;;;22.75;7.93;;;;;;;7.33;73.37;102319.47;5066023;28;20029;-76
2022/03/15 08:42:23;;;;;;;22.27;7.72;;;;;;;7.38;73.17;102314.00;5060050;28;20021;-76
2022/03/15 08:44:49;;;;;;;26.10;8.45;;;;;;;7.42;72.42;102306.72;5068182;28;20036;-77
2022/03/15 08:47:14;;;;;;;20.70;7.65;;;;;;;7.45;72.86;102312.84;5064317;28;20567;-77
2022/03/15 08:49:41;;;;;;;21.48;7.70;;;;;;;7.49;72.58;102310.91;5060256;28;20028;-77
2022/03/15 08:52:08;;;;;;;19.90;6.80;;;;;;;7.52;72.45;102313.47;5061707;28;20025;-77
2022/03/15 08:54:35;;;;;;;21.60;6.85;;;;;;;7.56;72.44;102309.75;5059459;28;20448;-77
2022/03/15 08:57:00;;;;;;;22.88;7.35;;;;;;;7.61;72.40;102306.91;5065399;28;20032;-76
2022/03/15 08:59:26;;;;;;;25.48;7.60;;;;;;;7.64;71.50;102302.31;5057581;28;20495;-76
2022/03/15 09:01:52;;;;;;;26.15;7.15;;;;;;;7.67;71.78;102304.88;5065480;28;20032;-76
2022/03/15 09:04:17;;;;;;;23.42;7.57;;;;;;;7.69;72.10;102297.66;5066320;28;20505;-76
2022/03/15 09:06:43;;;;;;;18.52;7.22;;;;;;;7.73;71.30;102293.09;5061358;28;20028;-77
2022/03/15 09:09:08;;;;;;;18.92;7.07;;;;;;;7.76;71.09;102300.09;5063531;28;20012;-77
2022/03/15 09:11:34;;;;;;;22.13;7.43;;;;;;;7.80;71.72;102291.03;5060669;28;20052;-77
2022/03/15 09:14:02;;;;;;;21.25;7.40;;;;;;;7.83;71.48;102291.78;5065111;28;20483;-77
2022/03/15 09:16:28;;;;;;;24.13;7.38;;;;;;;7.90;71.86;102296.91;5049398;28;20032;-77
2022/03/15 09:18:53;;;;;;;20.67;7.55;;;;;;;7.93;71.85;102292.28;5064631;28;20040;-77
2022/03/15 09:21:19;;;;;;;21.83;7.65;;;;;;;7.97;70.61;102301.09;5063355;28;20503;-77
2022/03/15 09:23:45;;;;;;;20.17;7.50;;;;;;;8.02;71.23;102299.97;5066806;28;20016;-77
2022/03/15 09:26:11;;;;;;;21.27;7.75;;;;;;;8.07;71.36;102304.25;5063923;28;20101;-77
2022/03/15 09:28:37;;;;;;;16.02;6.10;;;;;;;8.10;71.25;102309.53;5056408;28;20132;-76
2022/03/15 09:31:03;;;;;;;27.23;7.55;;;;;;;8.13;69.98;102307.56;5061396;28;20032;-77
2022/03/15 09:33:28;;;;;;;23.35;7.53;;;;;;;8.17;70.38;102311.00;5066806;28;20396;-77
2022/03/15 09:35:54;;;;;;;20.10;7.75;;;;;;;8.18;69.09;102304.72;5061193;28;20429;-77
2022/03/15 09:38:21;;;;;;;24.25;7.13;;;;;;;8.20;69.01;102300.19;5064133;28;20036;-77
2022/03/15 09:40:51;;;;;;;19.73;7.57;;;;;;;8.22;69.46;102303.66;5058141;28;20029;-77
2022/03/15 09:43:22;;;;;;;21.88;8.30;;;;;;;8.27;70.09;102298.97;5051304;28;20038;-77
2022/03/15 09:45:49;;;;;;;21.00;7.53;;;;;;;8.33;69.56;102297.84;5057148;28;20449;-77
2022/03/15 09:48:19;;;;;;;23.38;7.95;;;;;;;8.37;70.05;102297.66;5057851;28;20377;-77
2022/03/15 09:50:46;;;;;;;;;;;;;;;8.45;71.02;102291.16;5062353;28;20021;-77
2022/03/15 09:53:12;;;;;;;19.17;7.43;;;;;;;8.45;71.28;102301.88;5061683;28;19993;-77
2022/03/15 09:55:37;;;;;;;19.17;8.02;;;;;;;8.47;72.77;102289.31;5062350;28;20020;-77
2022/03/15 09:58:03;;;;;;;23.98;9.15;;;;;;;8.49;72.56;102290.09;5064831;28;20028;-77
2022/03/15 10:00:29;;;;;;;22.42;9.25;;;;;;;8.50;72.29;102290.03;5065771;28;20024;-77
2022/03/15 10:02:55;;;;;;;22.38;8.38;;;;;;;8.52;72.63;102282.81;5064795;28;20035;-77
2022/03/15 10:05:20;;;;;;;22.90;9.45;;;;;;;8.55;72.04;102289.84;5061338;28;20036;-77
2022/03/15 10:07:46;;;;;;;21.25;8.73;;;;;;;8.59;72.62;102283.41;5062053;28;20510;-77
2022/03/15 10:10:14;;;;;;;25.00;8.98;;;;;;;8.62;72.15;102283.28;5058769;28;20067;-76
2022/03/15 10:12:39;;;;;;;27.23;9.00;;;;;;;8.64;72.02;102277.88;5043375;28;20040;-78
2022/03/15 10:15:16;;;;;;;20.92;9.07;;;;;;;8.69;72.25;102283.91;5062768;28;20090;-77
2022/03/15 10:17:53;;;;;;;23.15;8.43;;;;;;;8.70;71.59;102281.16;5045701;28;20068;-77
2022/03/15 10:20:21;;;;;;;21.27;8.65;;;;;;;8.72;70.98;102281.97;5063890;28;20032;-77
2022/03/15 10:22:52;;;;;;;26.85;9.48;;;;;;;8.77;71.52;102278.22;5061509;28;20119;-77
2022/03/15 10:25:20;;;;;;;23.30;9.38;;;;;;;8.80;70.68;102273.63;5063843;28;20111;-77
2022/03/15 10:27:53;;;;;;;19.10;7.68;;;;;;;8.85;71.41;102271.59;5063513;28;20115;-77
2022/03/15 10:30:19;;;;;;;20.75;8.45;;;;;;;8.90;69.71;102269.59;5061681;28;20039;-77
2022/03/15 10:32:46;;;;;;;20.27;7.68;;;;;;;8.97;69.00;102264.81;5062983;28;20036;-77
2022/03/15 10:35:12;;;;;;;17.42;6.80;;;;;;;9.04;69.23;102260.94;5059445;28;20056;-77
2022/03/15 10:37:41;;;;;;;23.50;6.68;;;;;;;9.10;68.84;102255.28;5045653;28;20066;-77
2022/03/15 10:40:07;;;;;;;21.73;6.78;;;;;;;9.17;69.21;102244.31;5062748;28;20063;-77
2022/03/15 10:42:38;;;;;;;19.70;6.78;;;;;;;9.22;67.68;102253.91;5063247;28;20145;-77
2022/03/15 10:45:14;;;;;;;20.27;6.80;;;;;;;9.30;68.23;102242.81;5065360;28;20028;-77
2022/03/15 10:47:51;;;;;;;18.63;6.57;;;;;;;9.38;69.33;102243.31;5064258;28;20059;-77
2022/03/15 10:50:16;;;;;;;19.95;6.65;;;;;;;9.41;66.93;102236.94;5056783;28;20025;-77
2022/03/15 10:52:42;;;;;;;22.70;6.57;;;;;;;9.47;66.82;102233.97;5061711;28;20036;-77
2022/03/15 10:55:26;;;;;;;21.17;6.93;;;;;;;9.52;67.30;102231.97;5060631;28;20103;-77
2022/03/15 10:58:03;;;;;;;24.00;6.95;;;;;;;9.59;67.01;102229.84;5062400;28;20036;-77
2022/03/15 11:00:35;;;;;;;19.52;6.50;;;;;;;9.65;67.39;102231.38;5057776;28;20438;-77
2022/03/15 11:03:02;;;;;;;18.60;6.28;;;;;;;9.70;68.88;102227.53;5057085;28;20478;-77
2022/03/15 11:05:36;;;;;;;20.42;6.60;;;;;;;9.76;68.28;102229.91;5058394;28;20044;-77
2022/03/15 11:08:05;;;;;;;16.65;5.72;;;;;;;9.78;66.61;102227.16;5059685;28;20115;-77
2022/03/15 11:10:30;;;;;;;21.70;7.10;;;;;;;9.77;67.58;102220.06;5062681;28;20098;-77
2022/03/15 11:13:02;;;;;;;18.40;6.57;;;;;;;9.77;67.19;102212.88;5062552;28;20037;-77
2022/03/15 11:15:30;;;;;;;17.75;6.28;;;;;;;9.78;67.07;102219.09;5063905;28;20205;-77
2022/03/15 11:18:02;;;;;;;23.40;6.60;;;;;;;9.80;67.17;102211.84;5062715;28;20695;-77